sensor_id;sensor_type;location;lat;lon;timestamp;P1;durP1;ratioP1;P2;durP2;ratioP2
42084;SDS011;27746;52.228;20.890;2023-04-25T00:00:48;21.15;;;13.23;;
42084;SDS011;27746;52.228;20.890;2023-04-25T00:03:17;17.60;;;12.68;;
42084;SDS011;27746;52.228;20.890;2023-04-25T00:05:44;20.77;;;14.07;;
42084;SDS011;27746;52.228;20.890;2023-04-25T00:08:12;20.13;;;14.10;;
42084;SDS011;27746;52.228;20.890;2023-04-25T00:10:39;20.88;;;14.40;;
42084;SDS011;27746;52.228;20.890;2023-04-25T00:13:06;23.65;;;13.73;;
42084;SDS011;27746;52.228;20.890;2023-04-25T00:15:33;23.58;;;14.45;;
42084;SDS011;27746;52.228;20.890;2023-04-25T00:18:01;17.73;;;13.05;;
42084;SDS011;27746;52.228;20.890;2023-04-25T00:20:28;17.77;;;12.98;;
42084;SDS011;27746;52.228;20.890;2023-04-25T00:22:55;20.67;;;14.02;;
42084;SDS011;27746;52.228;20.890;2023-04-25T00:25:23;23.08;;;16.13;;
42084;SDS011;27746;52.228;20.890;2023-04-25T00:27:51;26.63;;;15.38;;
42084;SDS011;27746;52.228;20.890;2023-04-25T00:30:17;20.45;;;13.73;;
42084;SDS011;27746;52.228;20.890;2023-04-25T00:32:44;19.63;;;13.93;;
42084;SDS011;27746;52.228;20.890;2023-04-25T00:35:11;23.13;;;15.40;;
42084;SDS011;27746;52.228;20.890;2023-04-25T00:37:38;22.27;;;14.43;;
42084;SDS011;27746;52.228;20.890;2023-04-25T00:40:05;20.65;;;15.80;;
42084;SDS011;27746;52.228;20.890;2023-04-25T00:42:35;20.70;;;13.65;;
42084;SDS011;27746;52.228;20.890;2023-04-25T00:45:03;19.60;;;14.00;;
42084;SDS011;27746;52.228;20.890;2023-04-25T00:47:32;20.58;;;13.93;;
42084;SDS011;27746;52.228;20.890;2023-04-25T00:49:59;22.83;;;14.52;;
42084;SDS011;27746;52.228;20.890;2023-04-25T00:52:26;19.70;;;14.35;;
42084;SDS011;27746;52.228;20.890;2023-04-25T00:54:53;18.75;;;13.68;;
42084;SDS011;27746;52.228;20.890;2023-04-25T00:57:20;20.40;;;14.25;;
42084;SDS011;27746;52.228;20.890;2023-04-25T00:59:48;20.33;;;14.07;;
42084;SDS011;27746;52.228;20.890;2023-04-25T01:02:18;20.08;;;14.65;;
42084;SDS011;27746;52.228;20.890;2023-04-25T01:04:45;19.30;;;13.23;;
42084;SDS011;27746;52.228;20.890;2023-04-25T01:07:13;22.73;;;14.23;;
42084;SDS011;27746;52.228;20.890;2023-04-25T01:09:40;18.48;;;14.43;;
42084;SDS011;27746;52.228;20.890;2023-04-25T01:12:07;18.17;;;13.73;;
42084;SDS011;27746;52.228;20.890;2023-04-25T01:14:34;16.65;;;12.30;;
42084;SDS011;27746;52.228;20.890;2023-04-25T01:17:02;22.02;;;13.75;;
42084;SDS011;27746;52.228;20.890;2023-04-25T01:19:32;19.08;;;12.90;;
42084;SDS011;27746;52.228;20.890;2023-04-25T01:22:01;17.48;;;11.80;;
42084;SDS011;27746;52.228;20.890;2023-04-25T01:24:28;19.08;;;13.10;;
42084;SDS011;27746;52.228;20.890;2023-04-25T01:26:56;19.30;;;12.50;;
42084;SDS011;27746;52.228;20.890;2023-04-25T01:29:25;20.63;;;12.18;;
42084;SDS011;27746;52.228;20.890;2023-04-25T01:31:53;19.15;;;12.77;;
42084;SDS011;27746;52.228;20.890;2023-04-25T01:34:20;17.95;;;12.93;;
42084;SDS011;27746;52.228;20.890;2023-04-25T01:36:48;18.27;;;12.43;;
42084;SDS011;27746;52.228;20.890;2023-04-25T01:39:17;17.02;;;12.18;;
42084;SDS011;27746;52.228;20.890;2023-04-25T01:41:44;18.70;;;13.07;;
42084;SDS011;27746;52.228;20.890;2023-04-25T01:44:12;16.35;;;12.25;;
42084;SDS011;27746;52.228;20.890;2023-04-25T01:46:40;19.67;;;13.27;;
42084;SDS011;27746;52.228;20.890;2023-04-25T01:49:07;17.35;;;12.13;;
42084;SDS011;27746;52.228;20.890;2023-04-25T01:51:34;20.63;;;12.70;;
42084;SDS011;27746;52.228;20.890;2023-04-25T01:54:01;19.60;;;13.02;;
42084;SDS011;27746;52.228;20.890;2023-04-25T01:56:31;18.80;;;12.52;;
42084;SDS011;27746;52.228;20.890;2023-04-25T01:58:59;17.75;;;12.90;;
42084;SDS011;27746;52.228;20.890;2023-04-25T02:01:26;20.50;;;12.73;;
42084;SDS011;27746;52.228;20.890;2023-04-25T02:03:52;15.90;;;12.10;;
42084;SDS011;27746;52.228;20.890;2023-04-25T02:06:19;17.17;;;11.90;;
42084;SDS011;27746;52.228;20.890;2023-04-25T02:08:46;18.50;;;12.13;;
42084;SDS011;27746;52.228;20.890;2023-04-25T02:11:13;17.48;;;11.73;;
42084;SDS011;27746;52.228;20.890;2023-04-25T02:13:41;16.27;;;11.25;;
42084;SDS011;27746;52.228;20.890;2023-04-25T02:16:08;14.85;;;10.02;;
42084;SDS011;27746;52.228;20.890;2023-04-25T02:18:35;16.60;;;11.10;;
42084;SDS011;27746;52.228;20.890;2023-04-25T02:21:04;17.38;;;11.10;;
42084;SDS011;27746;52.228;20.890;2023-04-25T02:23:31;15.20;;;10.10;;
42084;SDS011;27746;52.228;20.890;2023-04-25T02:25:58;14.65;;;10.32;;
42084;SDS011;27746;52.228;20.890;2023-04-25T02:28:25;14.20;;;10.70;;
42084;SDS011;27746;52.228;20.890;2023-04-25T02:30:53;15.88;;;10.88;;
42084;SDS011;27746;52.228;20.890;2023-04-25T02:33:20;13.35;;;9.52;;
42084;SDS011;27746;52.228;20.890;2023-04-25T02:35:47;17.88;;;9.98;;
42084;SDS011;27746;52.228;20.890;2023-04-25T02:38:14;14.70;;;9.23;;
42084;SDS011;27746;52.228;20.890;2023-04-25T02:40:40;14.30;;;9.32;;
42084;SDS011;27746;52.228;20.890;2023-04-25T02:43:07;13.98;;;9.57;;
42084;SDS011;27746;52.228;20.890;2023-04-25T02:45:34;17.02;;;10.23;;
42084;SDS011;27746;52.228;20.890;2023-04-25T02:48:04;15.40;;;10.43;;
42084;SDS011;27746;52.228;20.890;2023-04-25T02:50:31;16.70;;;10.93;;
42084;SDS011;27746;52.228;20.890;2023-04-25T02:52:58;14.05;;;9.15;;
42084;SDS011;27746;52.228;20.890;2023-04-25T02:55:25;15.07;;;9.95;;
42084;SDS011;27746;52.228;20.890;2023-04-25T02:57:52;13.98;;;9.52;;
42084;SDS011;27746;52.228;20.890;2023-04-25T03:00:20;16.23;;;9.82;;
42084;SDS011;27746;52.228;20.890;2023-04-25T03:02:48;12.95;;;9.27;;
42084;SDS011;27746;52.228;20.890;2023-04-25T03:05:17;11.90;;;8.45;;
42084;SDS011;27746;52.228;20.890;2023-04-25T03:07:44;14.27;;;9.43;;
42084;SDS011;27746;52.228;20.890;2023-04-25T03:10:11;14.52;;;8.98;;
42084;SDS011;27746;52.228;20.890;2023-04-25T03:12:38;13.43;;;8.98;;
42084;SDS011;27746;52.228;20.890;2023-04-25T03:15:05;13.02;;;8.75;;
42084;SDS011;27746;52.228;20.890;2023-04-25T03:17:32;13.10;;;9.18;;
42084;SDS011;27746;52.228;20.890;2023-04-25T03:20:00;15.13;;;9.43;;
42084;SDS011;27746;52.228;20.890;2023-04-25T03:22:30;13.75;;;9.10;;
42084;SDS011;27746;52.228;20.890;2023-04-25T03:24:57;13.52;;;9.70;;
42084;SDS011;27746;52.228;20.890;2023-04-25T03:27:24;12.30;;;8.32;;
42084;SDS011;27746;52.228;20.890;2023-04-25T03:29:50;15.57;;;9.00;;
42084;SDS011;27746;52.228;20.890;2023-04-25T03:32:17;14.05;;;8.60;;
42084;SDS011;27746;52.228;20.890;2023-04-25T03:34:44;15.38;;;10.48;;
42084;SDS011;27746;52.228;20.890;2023-04-25T03:37:11;17.05;;;9.25;;
42084;SDS011;27746;52.228;20.890;2023-04-25T03:39:41;13.15;;;9.07;;
42084;SDS011;27746;52.228;20.890;2023-04-25T03:42:07;14.60;;;9.65;;
42084;SDS011;27746;52.228;20.890;2023-04-25T03:44:34;14.73;;;8.73;;
42084;SDS011;27746;52.228;20.890;2023-04-25T03:47:01;13.20;;;8.55;;
42084;SDS011;27746;52.228;20.890;2023-04-25T03:49:28;14.15;;;8.98;;
42084;SDS011;27746;52.228;20.890;2023-04-25T03:51:55;16.55;;;8.20;;
42084;SDS011;27746;52.228;20.890;2023-04-25T03:54:22;14.00;;;9.05;;
42084;SDS011;27746;52.228;20.890;2023-04-25T03:56:50;16.13;;;8.13;;
42084;SDS011;27746;52.228;20.890;2023-04-25T03:59:17;11.80;;;7.57;;
42084;SDS011;27746;52.228;20.890;2023-04-25T04:01:44;10.18;;;6.90;;
42084;SDS011;27746;52.228;20.890;2023-04-25T04:04:10;12.52;;;6.55;;
42084;SDS011;27746;52.228;20.890;2023-04-25T04:06:37;10.48;;;7.13;;
42084;SDS011;27746;52.228;20.890;2023-04-25T04:09:04;10.18;;;7.32;;
42084;SDS011;27746;52.228;20.890;2023-04-25T04:11:35;10.88;;;7.28;;
42084;SDS011;27746;52.228;20.890;2023-04-25T04:14:04;10.02;;;6.72;;
42084;SDS011;27746;52.228;20.890;2023-04-25T04:16:31;11.95;;;7.45;;
42084;SDS011;27746;52.228;20.890;2023-04-25T04:18:58;12.00;;;7.68;;
42084;SDS011;27746;52.228;20.890;2023-04-25T04:21:25;10.07;;;7.13;;
42084;SDS011;27746;52.228;20.890;2023-04-25T04:23:52;10.63;;;7.38;;
42084;SDS011;27746;52.228;20.890;2023-04-25T04:26:19;9.32;;;6.53;;
42084;SDS011;27746;52.228;20.890;2023-04-25T04:28:48;10.55;;;6.72;;
42084;SDS011;27746;52.228;20.890;2023-04-25T04:31:17;10.80;;;6.65;;
42084;SDS011;27746;52.228;20.890;2023-04-25T04:33:44;10.35;;;6.63;;
42084;SDS011;27746;52.228;20.890;2023-04-25T04:36:11;9.80;;;6.72;;
42084;SDS011;27746;52.228;20.890;2023-04-25T04:38:38;12.85;;;7.53;;
42084;SDS011;27746;52.228;20.890;2023-04-25T04:41:06;11.32;;;7.97;;
42084;SDS011;27746;52.228;20.890;2023-04-25T04:43:33;13.57;;;8.65;;
42084;SDS011;27746;52.228;20.890;2023-04-25T04:46:00;12.07;;;8.23;;
42084;SDS011;27746;52.228;20.890;2023-04-25T04:48:30;11.77;;;8.95;;
42084;SDS011;27746;52.228;20.890;2023-04-25T04:50:59;12.32;;;8.45;;
42084;SDS011;27746;52.228;20.890;2023-04-25T04:53:26;12.05;;;8.48;;
42084;SDS011;27746;52.228;20.890;2023-04-25T04:55:54;10.93;;;7.80;;
42084;SDS011;27746;52.228;20.890;2023-04-25T04:58:21;12.40;;;8.05;;
42084;SDS011;27746;52.228;20.890;2023-04-25T05:00:48;12.20;;;8.48;;
42084;SDS011;27746;52.228;20.890;2023-04-25T05:03:15;11.38;;;7.88;;
42084;SDS011;27746;52.228;20.890;2023-04-25T05:05:43;10.57;;;7.70;;
42084;SDS011;27746;52.228;20.890;2023-04-25T05:08:10;11.88;;;8.18;;
42084;SDS011;27746;52.228;20.890;2023-04-25T05:10:38;13.35;;;7.60;;
42084;SDS011;27746;52.228;20.890;2023-04-25T05:13:05;17.65;;;8.93;;
42084;SDS011;27746;52.228;20.890;2023-04-25T05:15:31;15.13;;;8.10;;
42084;SDS011;27746;52.228;20.890;2023-04-25T05:17:58;61.97;;;16.85;;
42084;SDS011;27746;52.228;20.890;2023-04-25T05:20:25;26.83;;;10.13;;
42084;SDS011;27746;52.228;20.890;2023-04-25T05:22:53;27.85;;;10.45;;
42084;SDS011;27746;52.228;20.890;2023-04-25T05:25:20;16.35;;;10.05;;
42084;SDS011;27746;52.228;20.890;2023-04-25T05:27:47;44.83;;;12.52;;
42084;SDS011;27746;52.228;20.890;2023-04-25T05:30:16;25.35;;;9.52;;
42084;SDS011;27746;52.228;20.890;2023-04-25T05:32:43;24.13;;;8.90;;
42084;SDS011;27746;52.228;20.890;2023-04-25T05:35:10;29.27;;;9.15;;
42084;SDS011;27746;52.228;20.890;2023-04-25T05:37:37;51.33;;;14.55;;
42084;SDS011;27746;52.228;20.890;2023-04-25T05:40:06;31.80;;;10.43;;
42084;SDS011;27746;52.228;20.890;2023-04-25T05:42:34;18.70;;;9.15;;
42084;SDS011;27746;52.228;20.890;2023-04-25T05:45:01;11.65;;;7.63;;
42084;SDS011;27746;52.228;20.890;2023-04-25T05:47:28;11.70;;;8.57;;
42084;SDS011;27746;52.228;20.890;2023-04-25T05:49:55;12.30;;;8.18;;
42084;SDS011;27746;52.228;20.890;2023-04-25T05:52:22;10.43;;;7.63;;
42084;SDS011;27746;52.228;20.890;2023-04-25T05:54:49;11.15;;;7.72;;
42084;SDS011;27746;52.228;20.890;2023-04-25T05:57:21;12.27;;;8.40;;
42084;SDS011;27746;52.228;20.890;2023-04-25T05:59:48;11.55;;;8.05;;
42084;SDS011;27746;52.228;20.890;2023-04-25T06:02:15;14.13;;;8.02;;
42084;SDS011;27746;52.228;20.890;2023-04-25T06:04:42;11.43;;;7.70;;
42084;SDS011;27746;52.228;20.890;2023-04-25T06:07:09;9.70;;;7.38;;
42084;SDS011;27746;52.228;20.890;2023-04-25T06:09:36;10.35;;;7.65;;
42084;SDS011;27746;52.228;20.890;2023-04-25T06:12:04;10.95;;;7.65;;
42084;SDS011;27746;52.228;20.890;2023-04-25T06:14:32;10.02;;;8.10;;
42084;SDS011;27746;52.228;20.890;2023-04-25T06:17:00;13.35;;;7.50;;
42084;SDS011;27746;52.228;20.890;2023-04-25T06:19:31;11.90;;;7.70;;
42084;SDS011;27746;52.228;20.890;2023-04-25T06:21:58;10.68;;;7.32;;
42084;SDS011;27746;52.228;20.890;2023-04-25T06:24:25;11.05;;;7.60;;
42084;SDS011;27746;52.228;20.890;2023-04-25T06:26:52;12.45;;;7.38;;
42084;SDS011;27746;52.228;20.890;2023-04-25T06:29:19;10.90;;;7.20;;
42084;SDS011;27746;52.228;20.890;2023-04-25T06:31:47;9.65;;;6.70;;
42084;SDS011;27746;52.228;20.890;2023-04-25T06:34:14;9.45;;;6.25;;
42084;SDS011;27746;52.228;20.890;2023-04-25T06:36:42;8.45;;;6.10;;
42084;SDS011;27746;52.228;20.890;2023-04-25T06:39:10;13.85;;;8.20;;
42084;SDS011;27746;52.228;20.890;2023-04-25T06:41:37;9.38;;;6.88;;
42084;SDS011;27746;52.228;20.890;2023-04-25T06:44:03;9.50;;;6.55;;
42084;SDS011;27746;52.228;20.890;2023-04-25T06:46:31;9.93;;;7.20;;
42084;SDS011;27746;52.228;20.890;2023-04-25T06:48:59;13.00;;;7.25;;
42084;SDS011;27746;52.228;20.890;2023-04-25T06:51:26;13.10;;;7.05;;
42084;SDS011;27746;52.228;20.890;2023-04-25T06:53:54;11.98;;;7.00;;
42084;SDS011;27746;52.228;20.890;2023-04-25T06:56:21;11.77;;;6.70;;
42084;SDS011;27746;52.228;20.890;2023-04-25T06:58:48;10.43;;;6.60;;
42084;SDS011;27746;52.228;20.890;2023-04-25T07:01:15;10.02;;;6.90;;
42084;SDS011;27746;52.228;20.890;2023-04-25T07:03:42;11.90;;;7.65;;
42084;SDS011;27746;52.228;20.890;2023-04-25T07:06:10;12.52;;;7.82;;
42084;SDS011;27746;52.228;20.890;2023-04-25T07:08:37;8.27;;;5.93;;
42084;SDS011;27746;52.228;20.890;2023-04-25T07:11:04;8.98;;;6.72;;
42084;SDS011;27746;52.228;20.890;2023-04-25T07:13:31;10.30;;;7.60;;
42084;SDS011;27746;52.228;20.890;2023-04-25T07:15:58;9.27;;;6.43;;
42084;SDS011;27746;52.228;20.890;2023-04-25T07:18:25;10.98;;;6.90;;
42084;SDS011;27746;52.228;20.890;2023-04-25T07:20:52;9.52;;;7.10;;
42084;SDS011;27746;52.228;20.890;2023-04-25T07:23:20;10.52;;;7.10;;
42084;SDS011;27746;52.228;20.890;2023-04-25T07:25:47;9.90;;;6.20;;
42084;SDS011;27746;52.228;20.890;2023-04-25T07:28:14;11.13;;;6.65;;
42084;SDS011;27746;52.228;20.890;2023-04-25T07:30:41;8.10;;;5.80;;
42084;SDS011;27746;52.228;20.890;2023-04-25T07:33:08;8.07;;;5.78;;
42084;SDS011;27746;52.228;20.890;2023-04-25T07:35:35;7.68;;;5.80;;
42084;SDS011;27746;52.228;20.890;2023-04-25T07:38:02;10.55;;;6.38;;
42084;SDS011;27746;52.228;20.890;2023-04-25T07:40:33;11.77;;;6.35;;
42084;SDS011;27746;52.228;20.890;2023-04-25T07:43:00;49.05;;;11.13;;
42084;SDS011;27746;52.228;20.890;2023-04-25T07:45:27;9.18;;;6.15;;
42084;SDS011;27746;52.228;20.890;2023-04-25T07:47:54;9.55;;;5.45;;
42084;SDS011;27746;52.228;20.890;2023-04-25T07:50:21;14.95;;;6.05;;
42084;SDS011;27746;52.228;20.890;2023-04-25T07:52:48;17.35;;;7.50;;
42084;SDS011;27746;52.228;20.890;2023-04-25T07:55:15;69.43;;;16.55;;
42084;SDS011;27746;52.228;20.890;2023-04-25T07:57:43;9.48;;;4.85;;
42084;SDS011;27746;52.228;20.890;2023-04-25T08:00:11;7.95;;;4.75;;
42084;SDS011;27746;52.228;20.890;2023-04-25T08:02:39;6.43;;;4.75;;
42084;SDS011;27746;52.228;20.890;2023-04-25T08:05:07;7.25;;;3.92;;
42084;SDS011;27746;52.228;20.890;2023-04-25T08:07:36;8.70;;;4.75;;
42084;SDS011;27746;52.228;20.890;2023-04-25T08:10:04;6.60;;;4.05;;
42084;SDS011;27746;52.228;20.890;2023-04-25T08:12:32;10.40;;;4.88;;
42084;SDS011;27746;52.228;20.890;2023-04-25T08:15:00;8.00;;;4.47;;
42084;SDS011;27746;52.228;20.890;2023-04-25T08:17:27;6.60;;;4.45;;
42084;SDS011;27746;52.228;20.890;2023-04-25T08:19:54;6.10;;;4.93;;
42084;SDS011;27746;52.228;20.890;2023-04-25T08:22:22;7.70;;;4.40;;
42084;SDS011;27746;52.228;20.890;2023-04-25T08:24:48;6.78;;;4.40;;
42084;SDS011;27746;52.228;20.890;2023-04-25T08:27:15;8.38;;;6.05;;
42084;SDS011;27746;52.228;20.890;2023-04-25T08:29:43;5.65;;;4.18;;
42084;SDS011;27746;52.228;20.890;2023-04-25T08:32:11;6.93;;;4.60;;
42084;SDS011;27746;52.228;20.890;2023-04-25T08:34:39;7.22;;;4.93;;
42084;SDS011;27746;52.228;20.890;2023-04-25T08:37:07;8.15;;;5.20;;
42084;SDS011;27746;52.228;20.890;2023-04-25T08:39:34;6.32;;;4.60;;
42084;SDS011;27746;52.228;20.890;2023-04-25T08:42:01;6.82;;;4.97;;
42084;SDS011;27746;52.228;20.890;2023-04-25T08:44:31;9.25;;;5.28;;
42084;SDS011;27746;52.228;20.890;2023-04-25T08:47:00;7.53;;;4.47;;
42084;SDS011;27746;52.228;20.890;2023-04-25T08:49:30;8.27;;;4.43;;
42084;SDS011;27746;52.228;20.890;2023-04-25T08:51:59;6.38;;;4.32;;
42084;SDS011;27746;52.228;20.890;2023-04-25T08:54:27;5.35;;;3.92;;
42084;SDS011;27746;52.228;20.890;2023-04-25T08:56:56;12.27;;;4.20;;
42084;SDS011;27746;52.228;20.890;2023-04-25T08:59:24;6.70;;;4.32;;
42084;SDS011;27746;52.228;20.890;2023-04-25T09:01:51;7.93;;;4.25;;
42084;SDS011;27746;52.228;20.890;2023-04-25T09:04:18;5.50;;;4.45;;
42084;SDS011;27746;52.228;20.890;2023-04-25T09:06:47;8.00;;;5.53;;
42084;SDS011;27746;52.228;20.890;2023-04-25T09:09:14;7.88;;;6.45;;
42084;SDS011;27746;52.228;20.890;2023-04-25T09:11:41;9.30;;;6.55;;
42084;SDS011;27746;52.228;20.890;2023-04-25T09:14:12;12.63;;;7.40;;
42084;SDS011;27746;52.228;20.890;2023-04-25T09:19:27;9.63;;;6.30;;
42084;SDS011;27746;52.228;20.890;2023-04-25T09:21:57;7.93;;;6.70;;
42084;SDS011;27746;52.228;20.890;2023-04-25T09:24:35;11.18;;;7.13;;
42084;SDS011;27746;52.228;20.890;2023-04-25T09:27:04;9.90;;;7.32;;
42084;SDS011;27746;52.228;20.890;2023-04-25T09:29:32;10.85;;;7.53;;
42084;SDS011;27746;52.228;20.890;2023-04-25T09:32:13;11.57;;;7.72;;
42084;SDS011;27746;52.228;20.890;2023-04-25T09:34:42;13.00;;;8.47;;
42084;SDS011;27746;52.228;20.890;2023-04-25T09:37:16;14.88;;;9.55;;
42084;SDS011;27746;52.228;20.890;2023-04-25T09:39:45;11.23;;;8.52;;
42084;SDS011;27746;52.228;20.890;2023-04-25T09:42:13;11.60;;;9.07;;
42084;SDS011;27746;52.228;20.890;2023-04-25T09:44:44;12.75;;;10.05;;
42084;SDS011;27746;52.228;20.890;2023-04-25T09:47:12;13.75;;;9.63;;
42084;SDS011;27746;52.228;20.890;2023-04-25T09:49:41;12.80;;;9.25;;
42084;SDS011;27746;52.228;20.890;2023-04-25T09:52:09;13.40;;;10.60;;
42084;SDS011;27746;52.228;20.890;2023-04-25T09:54:37;11.90;;;9.13;;
42084;SDS011;27746;52.228;20.890;2023-04-25T09:57:09;13.82;;;9.23;;
42084;SDS011;27746;52.228;20.890;2023-04-25T09:59:38;12.18;;;8.50;;
42084;SDS011;27746;52.228;20.890;2023-04-25T10:02:08;10.27;;;8.25;;
42084;SDS011;27746;52.228;20.890;2023-04-25T10:04:36;14.30;;;9.32;;
42084;SDS011;27746;52.228;20.890;2023-04-25T10:07:05;12.18;;;8.52;;
42084;SDS011;27746;52.228;20.890;2023-04-25T10:09:33;10.57;;;8.50;;
42084;SDS011;27746;52.228;20.890;2023-04-25T10:12:04;11.63;;;8.13;;
42084;SDS011;27746;52.228;20.890;2023-04-25T10:14:32;9.57;;;7.78;;
42084;SDS011;27746;52.228;20.890;2023-04-25T10:16:59;9.85;;;7.50;;
42084;SDS011;27746;52.228;20.890;2023-04-25T10:19:26;11.18;;;7.97;;
42084;SDS011;27746;52.228;20.890;2023-04-25T10:21:56;11.80;;;8.77;;
42084;SDS011;27746;52.228;20.890;2023-04-25T10:24:29;13.02;;;8.70;;
42084;SDS011;27746;52.228;20.890;2023-04-25T10:26:56;13.50;;;9.52;;
42084;SDS011;27746;52.228;20.890;2023-04-25T10:29:26;15.40;;;11.32;;
42084;SDS011;27746;52.228;20.890;2023-04-25T10:31:53;13.65;;;9.30;;
42084;SDS011;27746;52.228;20.890;2023-04-25T10:34:23;12.85;;;8.75;;
42084;SDS011;27746;52.228;20.890;2023-04-25T10:36:52;10.35;;;7.95;;
42084;SDS011;27746;52.228;20.890;2023-04-25T10:39:22;10.98;;;8.25;;
42084;SDS011;27746;52.228;20.890;2023-04-25T10:41:53;9.05;;;7.05;;
42084;SDS011;27746;52.228;20.890;2023-04-25T10:44:23;10.15;;;8.18;;
42084;SDS011;27746;52.228;20.890;2023-04-25T10:46:55;10.25;;;7.00;;
42084;SDS011;27746;52.228;20.890;2023-04-25T10:49:29;9.90;;;7.63;;
42084;SDS011;27746;52.228;20.890;2023-04-25T10:54:41;9.37;;;7.87;;
42084;SDS011;27746;52.228;20.890;2023-04-25T10:59:58;13.07;;;8.68;;
42084;SDS011;27746;52.228;20.890;2023-04-25T11:02:30;10.48;;;8.50;;
42084;SDS011;27746;52.228;20.890;2023-04-25T11:04:57;12.60;;;9.18;;
42084;SDS011;27746;52.228;20.890;2023-04-25T11:07:26;10.73;;;8.13;;
42084;SDS011;27746;52.228;20.890;2023-04-25T11:10:00;11.10;;;8.27;;
42084;SDS011;27746;52.228;20.890;2023-04-25T11:12:29;12.02;;;8.82;;
42084;SDS011;27746;52.228;20.890;2023-04-25T11:15:02;9.20;;;7.72;;
42084;SDS011;27746;52.228;20.890;2023-04-25T11:17:31;10.55;;;8.65;;
42084;SDS011;27746;52.228;20.890;2023-04-25T11:19:58;13.95;;;9.00;;
42084;SDS011;27746;52.228;20.890;2023-04-25T11:22:26;12.65;;;9.45;;
42084;SDS011;27746;52.228;20.890;2023-04-25T11:24:54;11.25;;;9.05;;
42084;SDS011;27746;52.228;20.890;2023-04-25T11:27:21;11.88;;;8.82;;
42084;SDS011;27746;52.228;20.890;2023-04-25T11:29:49;10.70;;;9.00;;
42084;SDS011;27746;52.228;20.890;2023-04-25T11:32:18;10.40;;;8.35;;
42084;SDS011;27746;52.228;20.890;2023-04-25T11:34:46;12.75;;;9.93;;
42084;SDS011;27746;52.228;20.890;2023-04-25T11:37:13;11.57;;;8.93;;
42084;SDS011;27746;52.228;20.890;2023-04-25T11:39:43;12.23;;;8.98;;
42084;SDS011;27746;52.228;20.890;2023-04-25T11:42:12;10.93;;;8.65;;
42084;SDS011;27746;52.228;20.890;2023-04-25T11:44:39;9.73;;;8.07;;
42084;SDS011;27746;52.228;20.890;2023-04-25T11:47:06;10.15;;;8.45;;
42084;SDS011;27746;52.228;20.890;2023-04-25T11:49:35;8.20;;;7.13;;
42084;SDS011;27746;52.228;20.890;2023-04-25T11:52:02;14.80;;;10.70;;
42084;SDS011;27746;52.228;20.890;2023-04-25T11:54:29;10.82;;;7.93;;
42084;SDS011;27746;52.228;20.890;2023-04-25T11:56:56;8.25;;;7.32;;
42084;SDS011;27746;52.228;20.890;2023-04-25T11:59:24;11.50;;;7.30;;
42084;SDS011;27746;52.228;20.890;2023-04-25T12:01:51;8.80;;;7.00;;
42084;SDS011;27746;52.228;20.890;2023-04-25T12:04:20;8.95;;;7.03;;
42084;SDS011;27746;52.228;20.890;2023-04-25T12:06:50;9.73;;;6.82;;
42084;SDS011;27746;52.228;20.890;2023-04-25T12:09:18;14.82;;;7.00;;
42084;SDS011;27746;52.228;20.890;2023-04-25T12:11:48;29.15;;;9.88;;
42084;SDS011;27746;52.228;20.890;2023-04-25T12:14:22;191.07;;;25.25;;
42084;SDS011;27746;52.228;20.890;2023-04-25T12:16:50;31.35;;;8.23;;
42084;SDS011;27746;52.228;20.890;2023-04-25T12:19:18;24.23;;;6.85;;
42084;SDS011;27746;52.228;20.890;2023-04-25T12:21:45;102.30;;;17.05;;
42084;SDS011;27746;52.228;20.890;2023-04-25T12:24:15;26.00;;;7.00;;
42084;SDS011;27746;52.228;20.890;2023-04-25T12:26:49;50.10;;;8.80;;
42084;SDS011;27746;52.228;20.890;2023-04-25T12:29:18;41.45;;;8.75;;
42084;SDS011;27746;52.228;20.890;2023-04-25T12:31:46;30.98;;;8.05;;
42084;SDS011;27746;52.228;20.890;2023-04-25T12:34:13;43.38;;;8.25;;
42084;SDS011;27746;52.228;20.890;2023-04-25T12:36:44;60.08;;;10.65;;
42084;SDS011;27746;52.228;20.890;2023-04-25T12:39:16;23.13;;;6.53;;
42084;SDS011;27746;52.228;20.890;2023-04-25T12:41:44;20.37;;;6.73;;
42084;SDS011;27746;52.228;20.890;2023-04-25T12:44:12;12.00;;;4.75;;
42084;SDS011;27746;52.228;20.890;2023-04-25T12:46:41;9.05;;;5.20;;
42084;SDS011;27746;52.228;20.890;2023-04-25T12:49:08;9.45;;;5.57;;
42084;SDS011;27746;52.228;20.890;2023-04-25T12:51:38;113.13;;;18.38;;
42084;SDS011;27746;52.228;20.890;2023-04-25T12:54:07;89.47;;;15.18;;
42084;SDS011;27746;52.228;20.890;2023-04-25T12:56:39;70.15;;;12.95;;
42084;SDS011;27746;52.228;20.890;2023-04-25T12:59:07;71.55;;;12.82;;
42084;SDS011;27746;52.228;20.890;2023-04-25T13:01:39;112.15;;;21.33;;
42084;SDS011;27746;52.228;20.890;2023-04-25T13:04:11;111.85;;;22.00;;
42084;SDS011;27746;52.228;20.890;2023-04-25T13:06:40;59.45;;;15.15;;
42084;SDS011;27746;52.228;20.890;2023-04-25T13:09:06;30.98;;;12.77;;
42084;SDS011;27746;52.228;20.890;2023-04-25T13:11:34;17.90;;;7.72;;
42084;SDS011;27746;52.228;20.890;2023-04-25T13:14:02;12.48;;;5.78;;
42084;SDS011;27746;52.228;20.890;2023-04-25T13:16:30;8.82;;;6.10;;
42084;SDS011;27746;52.228;20.890;2023-04-25T13:18:58;8.43;;;6.75;;
42084;SDS011;27746;52.228;20.890;2023-04-25T13:21:25;9.32;;;6.18;;
42084;SDS011;27746;52.228;20.890;2023-04-25T13:23:52;8.57;;;5.93;;
42084;SDS011;27746;52.228;20.890;2023-04-25T13:26:19;7.20;;;5.95;;
42084;SDS011;27746;52.228;20.890;2023-04-25T13:28:46;8.85;;;6.53;;
42084;SDS011;27746;52.228;20.890;2023-04-25T13:31:14;8.40;;;5.65;;
42084;SDS011;27746;52.228;20.890;2023-04-25T13:33:41;6.93;;;5.15;;
42084;SDS011;27746;52.228;20.890;2023-04-25T13:36:09;6.78;;;5.25;;
42084;SDS011;27746;52.228;20.890;2023-04-25T13:38:36;7.95;;;5.07;;
42084;SDS011;27746;52.228;20.890;2023-04-25T13:41:04;9.23;;;5.53;;
42084;SDS011;27746;52.228;20.890;2023-04-25T13:43:32;6.50;;;4.88;;
42084;SDS011;27746;52.228;20.890;2023-04-25T13:46:00;7.95;;;5.75;;
42084;SDS011;27746;52.228;20.890;2023-04-25T13:48:28;7.35;;;5.18;;
42084;SDS011;27746;52.228;20.890;2023-04-25T13:50:55;9.75;;;5.90;;
42084;SDS011;27746;52.228;20.890;2023-04-25T13:53:22;6.28;;;5.00;;
42084;SDS011;27746;52.228;20.890;2023-04-25T13:55:50;8.52;;;5.53;;
42084;SDS011;27746;52.228;20.890;2023-04-25T13:58:17;6.10;;;5.10;;
42084;SDS011;27746;52.228;20.890;2023-04-25T14:00:45;6.65;;;5.55;;
42084;SDS011;27746;52.228;20.890;2023-04-25T14:03:12;7.32;;;4.78;;
42084;SDS011;27746;52.228;20.890;2023-04-25T14:05:40;9.63;;;5.15;;
42084;SDS011;27746;52.228;20.890;2023-04-25T14:08:08;7.00;;;5.13;;
42084;SDS011;27746;52.228;20.890;2023-04-25T14:10:35;7.07;;;5.25;;
42084;SDS011;27746;52.228;20.890;2023-04-25T14:13:03;6.72;;;4.88;;
42084;SDS011;27746;52.228;20.890;2023-04-25T14:15:30;6.65;;;4.78;;
42084;SDS011;27746;52.228;20.890;2023-04-25T14:17:57;5.80;;;4.53;;
42084;SDS011;27746;52.228;20.890;2023-04-25T14:20:24;7.35;;;4.85;;
42084;SDS011;27746;52.228;20.890;2023-04-25T14:22:53;12.27;;;6.72;;
42084;SDS011;27746;52.228;20.890;2023-04-25T14:25:22;7.60;;;4.75;;
42084;SDS011;27746;52.228;20.890;2023-04-25T14:27:49;7.32;;;4.70;;
42084;SDS011;27746;52.228;20.890;2023-04-25T14:30:16;6.10;;;4.70;;
42084;SDS011;27746;52.228;20.890;2023-04-25T14:32:44;6.43;;;5.18;;